sensor_id;sensor_type;location;lat;lon;timestamp;pressure;altitude;pressure_sealevel;temperature;humidity
3544;BME280;1786;52.870;9.578;2023-05-12T00:02:15;100733.00;;;29.18;40.37
3544;BME280;1786;52.870;9.578;2023-05-12T00:04:43;100723.78;;;28.40;41.69
3544;BME280;1786;52.870;9.578;2023-05-12T00:07:09;100716.00;;;28.37;41.79
3544;BME280;1786;52.870;9.578;2023-05-12T00:09:36;100726.69;;;28.65;41.28
3544;BME280;1786;52.870;9.578;2023-05-12T00:12:03;100722.91;;;28.60;41.70
3544;BME280;1786;52.870;9.578;2023-05-12T00:14:30;100728.09;;;28.88;41.05
3544;BME280;1786;52.870;9.578;2023-05-12T00:16:56;100724.50;;;28.87;41.10
3544;BME280;1786;52.870;9.578;2023-05-12T00:19:23;100722.31;;;28.38;41.77
3544;BME280;1786;52.870;9.578;2023-05-12T00:21:49;100721.88;;;28.47;41.73
3544;BME280;1786;52.870;9.578;2023-05-12T00:24:16;100719.41;;;28.53;41.27
3544;BME280;1786;52.870;9.578;2023-05-12T00:26:42;100722.91;;;28.60;41.64
3544;BME280;1786;52.870;9.578;2023-05-12T00:29:09;100730.25;;;28.66;41.53
3544;BME280;1786;52.870;9.578;2023-05-12T00:31:36;100721.06;;;27.87;43.00
3544;BME280;1786;52.870;9.578;2023-05-12T00:34:02;100722.31;;;28.44;41.88
3544;BME280;1786;52.870;9.578;2023-05-12T00:36:29;100724.84;;;28.33;41.67
3544;BME280;1786;52.870;9.578;2023-05-12T00:38:55;100731.88;;;28.74;41.06
3544;BME280;1786;52.870;9.578;2023-05-12T00:41:22;100735.19;;;28.82;40.77
3544;BME280;1786;52.870;9.578;2023-05-12T00:43:49;100739.13;;;29.00;40.68
3544;BME280;1786;52.870;9.578;2023-05-12T00:46:16;100729.00;;;28.55;41.44
3544;BME280;1786;52.870;9.578;2023-05-12T00:48:44;100738.50;;;28.98;40.47
3544;BME280;1786;52.870;9.578;2023-05-12T00:51:12;100739.50;;;29.55;39.70
3544;BME280;1786;52.870;9.578;2023-05-12T00:53:39;100737.91;;;29.41;39.76
3544;BME280;1786;52.870;9.578;2023-05-12T00:56:17;100737.91;;;29.41;39.96
3544;BME280;1786;52.870;9.578;2023-05-12T00:58:46;100735.94;;;29.61;39.33
3544;BME280;1786;52.870;9.578;2023-05-12T01:01:14;100740.41;;;29.49;39.70
3544;BME280;1786;52.870;9.578;2023-05-12T01:03:41;100743.44;;;29.27;39.91
3544;BME280;1786;52.870;9.578;2023-05-12T01:06:11;100745.06;;;29.73;39.22
3544;BME280;1786;52.870;9.578;2023-05-12T01:08:39;100738.59;;;29.74;39.31
3544;BME280;1786;52.870;9.578;2023-05-12T01:11:08;100740.06;;;30.02;38.86
3544;BME280;1786;52.870;9.578;2023-05-12T01:13:35;100743.25;;;29.67;39.32
3544;BME280;1786;52.870;9.578;2023-05-12T01:16:03;100744.56;;;29.90;38.80
3544;BME280;1786;52.870;9.578;2023-05-12T01:18:34;100749.13;;;29.19;39.93
3544;BME280;1786;52.870;9.578;2023-05-12T01:21:05;100748.06;;;29.20;40.01
3544;BME280;1786;52.870;9.578;2023-05-12T01:23:36;100743.25;;;29.61;39.81
3544;BME280;1786;52.870;9.578;2023-05-12T01:26:06;100743.16;;;30.06;38.98
3544;BME280;1786;52.870;9.578;2023-05-12T01:28:35;100748.72;;;30.24;38.73
3544;BME280;1786;52.870;9.578;2023-05-12T01:31:05;100744.09;;;30.68;37.98
3544;BME280;1786;52.870;9.578;2023-05-12T01:33:36;100750.31;;;30.75;38.18
3544;BME280;1786;52.870;9.578;2023-05-12T01:36:04;100744.84;;;30.75;38.00
3544;BME280;1786;52.870;9.578;2023-05-12T01:38:31;100748.53;;;30.44;38.24
3544;BME280;1786;52.870;9.578;2023-05-12T01:40:58;100747.75;;;30.62;38.00
3544;BME280;1786;52.870;9.578;2023-05-12T01:43:25;100750.13;;;30.95;37.71
3544;BME280;1786;52.870;9.578;2023-05-12T01:45:51;100754.03;;;30.99;37.42
3544;BME280;1786;52.870;9.578;2023-05-12T01:48:18;100748.53;;;31.06;37.41
3544;BME280;1786;52.870;9.578;2023-05-12T01:50:45;100758.38;;;31.07;37.04
3544;BME280;1786;52.870;9.578;2023-05-12T01:53:17;100754.66;;;31.20;36.87
3544;BME280;1786;52.870;9.578;2023-05-12T01:55:44;100763.81;;;31.25;36.98
3544;BME280;1786;52.870;9.578;2023-05-12T01:58:11;100762.84;;;31.20;36.80
3544;BME280;1786;52.870;9.578;2023-05-12T02:00:38;100754.94;;;31.30;37.00
3544;BME280;1786;52.870;9.578;2023-05-12T02:03:11;100754.47;;;30.78;37.43
3544;BME280;1786;52.870;9.578;2023-05-12T02:05:38;100756.78;;;30.37;37.74
3544;BME280;1786;52.870;9.578;2023-05-12T02:08:04;100754.19;;;30.17;38.21
3544;BME280;1786;52.870;9.578;2023-05-12T02:10:32;100756.22;;;30.29;38.09
3544;BME280;1786;52.870;9.578;2023-05-12T02:12:59;100758.53;;;30.32;37.94
3544;BME280;1786;52.870;9.578;2023-05-12T02:15:26;100762.38;;;30.68;37.68
3544;BME280;1786;52.870;9.578;2023-05-12T02:17:53;100771.75;;;30.72;37.49
3544;BME280;1786;52.870;9.578;2023-05-12T02:20:22;100772.78;;;30.02;38.18
3544;BME280;1786;52.870;9.578;2023-05-12T02:22:48;100775.44;;;29.84;38.33
3544;BME280;1786;52.870;9.578;2023-05-12T02:25:15;100771.50;;;30.05;38.42
3544;BME280;1786;52.870;9.578;2023-05-12T02:27:42;100780.81;;;29.90;38.07
3544;BME280;1786;52.870;9.578;2023-05-12T02:30:10;100781.09;;;29.75;38.58
3544;BME280;1786;52.870;9.578;2023-05-12T02:32:37;100769.38;;;29.75;38.67
3544;BME280;1786;52.870;9.578;2023-05-12T02:35:06;100776.63;;;30.19;37.90
3544;BME280;1786;52.870;9.578;2023-05-12T02:37:33;100775.03;;;30.37;37.62
3544;BME280;1786;52.870;9.578;2023-05-12T02:40:00;100771.38;;;30.25;38.08
3544;BME280;1786;52.870;9.578;2023-05-12T02:42:26;100772.81;;;29.95;38.44
3544;BME280;1786;52.870;9.578;2023-05-12T02:44:59;100784.34;;;30.23;37.56
3544;BME280;1786;52.870;9.578;2023-05-12T02:47:25;100781.00;;;30.20;37.98
3544;BME280;1786;52.870;9.578;2023-05-12T02:49:52;100783.28;;;30.24;37.55
3544;BME280;1786;52.870;9.578;2023-05-12T02:52:20;100782.44;;;30.55;37.47
3544;BME280;1786;52.870;9.578;2023-05-12T02:54:47;100790.38;;;30.56;37.38
3544;BME280;1786;52.870;9.578;2023-05-12T02:57:14;100797.75;;;30.74;36.89
3544;BME280;1786;52.870;9.578;2023-05-12T02:59:41;100807.06;;;30.16;37.79
3544;BME280;1786;52.870;9.578;2023-05-12T03:02:07;100800.28;;;30.26;37.40
3544;BME280;1786;52.870;9.578;2023-05-12T03:04:34;100793.78;;;29.95;38.16
3544;BME280;1786;52.870;9.578;2023-05-12T03:07:02;100803.78;;;30.01;37.75
3544;BME280;1786;52.870;9.578;2023-05-12T03:09:29;100804.91;;;30.25;37.77
3544;BME280;1786;52.870;9.578;2023-05-12T03:11:56;100812.25;;;30.75;37.41
3544;BME280;1786;52.870;9.578;2023-05-12T03:14:22;100813.94;;;30.94;36.85
3544;BME280;1786;52.870;9.578;2023-05-12T03:16:51;100814.03;;;30.62;37.21
3544;BME280;1786;52.870;9.578;2023-05-12T03:19:18;100807.88;;;29.85;38.19
3544;BME280;1786;52.870;9.578;2023-05-12T03:21:44;100811.84;;;29.89;38.20
3544;BME280;1786;52.870;9.578;2023-05-12T03:24:11;100813.03;;;30.00;37.95
3544;BME280;1786;52.870;9.578;2023-05-12T03:26:37;100810.97;;;30.52;37.54
3544;BME280;1786;52.870;9.578;2023-05-12T03:29:04;100820.94;;;30.65;37.05
3544;BME280;1786;52.870;9.578;2023-05-12T03:31:31;100823.09;;;30.56;37.03
3544;BME280;1786;52.870;9.578;2023-05-12T03:33:58;100820.16;;;30.58;37.52
3544;BME280;1786;52.870;9.578;2023-05-12T03:36:25;100817.31;;;29.83;38.20
3544;BME280;1786;52.870;9.578;2023-05-12T03:38:51;100813.19;;;30.05;37.85
3544;BME280;1786;52.870;9.578;2023-05-12T03:41:18;100815.97;;;30.30;37.40
3544;BME280;1786;52.870;9.578;2023-05-12T03:43:45;100813.59;;;30.40;37.28
3544;BME280;1786;52.870;9.578;2023-05-12T03:46:12;100817.75;;;30.11;37.42
3544;BME280;1786;52.870;9.578;2023-05-12T03:48:39;100813.47;;;29.97;37.84
3544;BME280;1786;52.870;9.578;2023-05-12T03:51:06;100824.03;;;29.80;37.97
3544;BME280;1786;52.870;9.578;2023-05-12T03:53:32;100826.84;;;29.60;38.49
3544;BME280;1786;52.870;9.578;2023-05-12T03:56:03;100827.50;;;29.55;38.76
3544;BME280;1786;52.870;9.578;2023-05-12T03:58:31;100817.25;;;29.96;37.93
3544;BME280;1786;52.870;9.578;2023-05-12T04:00:58;100824.13;;;30.37;37.42
3544;BME280;1786;52.870;9.578;2023-05-12T04:03:27;100834.59;;;30.40;37.09
3544;BME280;1786;52.870;9.578;2023-05-12T04:05:58;100831.34;;;30.50;37.35
3544;BME280;1786;52.870;9.578;2023-05-12T04:08:26;100827.44;;;30.39;37.19
3544;BME280;1786;52.870;9.578;2023-05-12T04:10:57;100829.94;;;29.77;37.73
3544;BME280;1786;52.870;9.578;2023-05-12T04:13:24;100841.28;;;29.61;38.38
3544;BME280;1786;52.870;9.578;2023-05-12T04:15:54;100842.94;;;29.75;38.20
3544;BME280;1786;52.870;9.578;2023-05-12T04:18:23;100846.69;;;30.12;37.67
3544;BME280;1786;52.870;9.578;2023-05-12T04:20:50;100844.84;;;30.06;37.71
3544;BME280;1786;52.870;9.578;2023-05-12T04:23:17;100846.09;;;30.10;37.29
3544;BME280;1786;52.870;9.578;2023-05-12T04:25:44;100838.25;;;29.37;38.37
3544;BME280;1786;52.870;9.578;2023-05-12T04:28:11;100850.28;;;29.74;38.18
3544;BME280;1786;52.870;9.578;2023-05-12T04:30:40;100835.53;;;30.27;37.77
3544;BME280;1786;52.870;9.578;2023-05-12T04:33:08;100843.75;;;30.46;37.00
3544;BME280;1786;52.870;9.578;2023-05-12T04:35:36;100841.25;;;30.44;37.01
3544;BME280;1786;52.870;9.578;2023-05-12T04:38:03;100837.50;;;29.68;38.30
3544;BME280;1786;52.870;9.578;2023-05-12T04:40:30;100840.84;;;29.70;37.89
3544;BME280;1786;52.870;9.578;2023-05-12T04:43:00;100845.81;;;29.87;37.70
3544;BME280;1786;52.870;9.578;2023-05-12T04:45:28;100849.06;;;30.02;37.46
3544;BME280;1786;52.870;9.578;2023-05-12T04:47:55;100852.13;;;29.81;37.68
3544;BME280;1786;52.870;9.578;2023-05-12T04:50:22;100849.25;;;29.69;37.62
3544;BME280;1786;52.870;9.578;2023-05-12T04:52:49;100848.56;;;29.28;38.53
3544;BME280;1786;52.870;9.578;2023-05-12T04:55:15;100844.78;;;29.23;38.07
3544;BME280;1786;52.870;9.578;2023-05-12T04:57:43;100858.56;;;29.34;38.62
3544;BME280;1786;52.870;9.578;2023-05-12T05:00:10;100859.09;;;29.63;37.91
3544;BME280;1786;52.870;9.578;2023-05-12T05:02:37;100860.44;;;29.92;37.61
3544;BME280;1786;52.870;9.578;2023-05-12T05:05:05;100872.28;;;30.11;37.88
3544;BME280;1786;52.870;9.578;2023-05-12T05:07:31;100869.19;;;30.39;37.49
3544;BME280;1786;52.870;9.578;2023-05-12T05:09:58;100883.88;;;30.00;37.69
3544;BME280;1786;52.870;9.578;2023-05-12T05:12:25;100874.63;;;30.01;37.76
3544;BME280;1786;52.870;9.578;2023-05-12T05:14:53;100876.34;;;30.91;37.62
3544;BME280;1786;52.870;9.578;2023-05-12T05:17:19;100883.88;;;32.06;36.53
3544;BME280;1786;52.870;9.578;2023-05-12T05:19:46;100888.00;;;33.80;33.90
3544;BME280;1786;52.870;9.578;2023-05-12T05:22:26;100899.25;;;34.24;32.20
3544;BME280;1786;52.870;9.578;2023-05-12T05:24:53;100904.19;;;34.56;31.93
3544;BME280;1786;52.870;9.578;2023-05-12T05:27:20;100911.34;;;34.57;31.93
3544;BME280;1786;52.870;9.578;2023-05-12T05:29:46;100908.97;;;34.15;31.70
3544;BME280;1786;52.870;9.578;2023-05-12T05:32:13;100908.72;;;34.16;32.26
3544;BME280;1786;52.870;9.578;2023-05-12T05:34:42;100911.88;;;34.08;32.73
3544;BME280;1786;52.870;9.578;2023-05-12T05:37:09;100920.78;;;33.75;32.55
3544;BME280;1786;52.870;9.578;2023-05-12T05:39:36;100916.72;;;34.06;32.56
3544;BME280;1786;52.870;9.578;2023-05-12T05:42:03;100909.97;;;33.45;33.31
3544;BME280;1786;52.870;9.578;2023-05-12T05:44:30;100902.72;;;32.56;34.16
3544;BME280;1786;52.870;9.578;2023-05-12T05:46:58;100901.97;;;33.67;33.69
3544;BME280;1786;52.870;9.578;2023-05-12T05:49:26;100926.84;;;34.80;32.56
3544;BME280;1786;52.870;9.578;2023-05-12T05:51:54;100926.88;;;35.74;32.09
3544;BME280;1786;52.870;9.578;2023-05-12T05:54:24;100928.69;;;36.40;30.97
3544;BME280;1786;52.870;9.578;2023-05-12T05:56:51;100935.34;;;36.17;30.58
3544;BME280;1786;52.870;9.578;2023-05-12T05:59:17;100936.91;;;36.35;30.26
3544;BME280;1786;52.870;9.578;2023-05-12T06:01:44;100948.53;;;36.42;30.66
3544;BME280;1786;52.870;9.578;2023-05-12T06:04:11;100944.59;;;36.33;30.44
3544;BME280;1786;52.870;9.578;2023-05-12T06:06:38;100941.72;;;35.35;30.58
3544;BME280;1786;52.870;9.578;2023-05-12T06:09:04;100939.25;;;34.20;32.05
3544;BME280;1786;52.870;9.578;2023-05-12T06:11:32;100946.94;;;34.52;32.11
3544;BME280;1786;52.870;9.578;2023-05-12T06:13:58;100956.09;;;34.40;31.75
3544;BME280;1786;52.870;9.578;2023-05-12T06:16:25;100953.06;;;34.87;32.05
3544;BME280;1786;52.870;9.578;2023-05-12T06:18:52;100958.38;;;34.77;31.67
3544;BME280;1786;52.870;9.578;2023-05-12T06:21:19;100963.81;;;34.89;32.24
3544;BME280;1786;52.870;9.578;2023-05-12T06:23:46;100959.41;;;34.88;31.67
3544;BME280;1786;52.870;9.578;2023-05-12T06:26:13;100968.56;;;34.94;32.13
3544;BME280;1786;52.870;9.578;2023-05-12T06:28:39;100966.81;;;34.71;31.82
3544;BME280;1786;52.870;9.578;2023-05-12T06:31:06;100966.91;;;34.07;32.45
3544;BME280;1786;52.870;9.578;2023-05-12T06:33:34;100955.72;;;33.68;32.58
3544;BME280;1786;52.870;9.578;2023-05-12T06:36:01;100956.94;;;33.13;33.64
3544;BME280;1786;52.870;9.578;2023-05-12T06:38:27;100960.84;;;33.05;33.42
3544;BME280;1786;52.870;9.578;2023-05-12T06:40:54;100956.81;;;33.19;33.64
3544;BME280;1786;52.870;9.578;2023-05-12T06:43:20;100963.84;;;33.15;33.73
3544;BME280;1786;52.870;9.578;2023-05-12T06:45:53;100961.22;;;33.56;33.16
3544;BME280;1786;52.870;9.578;2023-05-12T06:48:19;100966.81;;;33.49;33.42
3544;BME280;1786;52.870;9.578;2023-05-12T06:50:46;100965.50;;;33.05;33.65
3544;BME280;1786;52.870;9.578;2023-05-12T06:53:13;100976.97;;;32.83;33.34
3544;BME280;1786;52.870;9.578;2023-05-12T06:55:40;100968.84;;;33.30;33.75
3544;BME280;1786;52.870;9.578;2023-05-12T06:58:09;100967.53;;;33.21;33.70
3544;BME280;1786;52.870;9.578;2023-05-12T07:00:35;100976.19;;;33.53;33.14
3544;BME280;1786;52.870;9.578;2023-05-12T07:03:02;100979.59;;;34.08;32.69
3544;BME280;1786;52.870;9.578;2023-05-12T07:05:29;100983.13;;;34.48;32.70
3544;BME280;1786;52.870;9.578;2023-05-12T07:07:56;100980.44;;;34.37;32.11
3544;BME280;1786;52.870;9.578;2023-05-12T07:10:22;100986.47;;;34.51;32.04
3544;BME280;1786;52.870;9.578;2023-05-12T07:12:49;100982.34;;;33.96;32.83
3544;BME280;1786;52.870;9.578;2023-05-12T07:15:16;100984.69;;;33.64;33.00
3544;BME280;1786;52.870;9.578;2023-05-12T07:17:43;100992.19;;;34.20;32.17
3544;BME280;1786;52.870;9.578;2023-05-12T07:20:09;100975.63;;;33.63;33.17
3544;BME280;1786;52.870;9.578;2023-05-12T07:22:37;100981.00;;;33.70;32.92
3544;BME280;1786;52.870;9.578;2023-05-12T07:25:05;100997.34;;;34.45;32.61
3544;BME280;1786;52.870;9.578;2023-05-12T07:27:32;100995.72;;;34.33;32.45
3544;BME280;1786;52.870;9.578;2023-05-12T07:30:00;100988.41;;;34.67;32.08
3544;BME280;1786;52.870;9.578;2023-05-12T07:32:26;100997.91;;;34.76;31.46
3544;BME280;1786;52.870;9.578;2023-05-12T07:34:53;100997.53;;;34.56;31.75
3544;BME280;1786;52.870;9.578;2023-05-12T07:37:19;100989.00;;;34.40;32.40
3544;BME280;1786;52.870;9.578;2023-05-12T07:39:47;100983.94;;;34.78;30.87
3544;BME280;1786;52.870;9.578;2023-05-12T07:42:14;100992.44;;;35.44;30.92
3544;BME280;1786;52.870;9.578;2023-05-12T07:44:41;100991.72;;;35.70;31.27
3544;BME280;1786;52.870;9.578;2023-05-12T07:47:07;100995.59;;;35.36;31.34
3544;BME280;1786;52.870;9.578;2023-05-12T07:49:34;100994.97;;;35.67;30.63
3544;BME280;1786;52.870;9.578;2023-05-12T07:52:01;100990.69;;;36.21;30.18
3544;BME280;1786;52.870;9.578;2023-05-12T07:54:28;100997.78;;;36.66;30.19
3544;BME280;1786;52.870;9.578;2023-05-12T07:56:54;101004.19;;;35.78;30.50
3544;BME280;1786;52.870;9.578;2023-05-12T07:59:21;101003.59;;;35.37;30.90
3544;BME280;1786;52.870;9.578;2023-05-12T08:01:48;100996.06;;;35.49;31.17
3544;BME280;1786;52.870;9.578;2023-05-12T08:04:15;100997.41;;;35.86;30.89
3544;BME280;1786;52.870;9.578;2023-05-12T08:06:41;100994.59;;;36.03;30.38
3544;BME280;1786;52.870;9.578;2023-05-12T08:09:08;101000.16;;;35.86;30.42
3544;BME280;1786;52.870;9.578;2023-05-12T08:11:34;100996.50;;;36.51;30.64
3544;BME280;1786;52.870;9.578;2023-05-12T08:14:02;101000.34;;;36.01;30.77
3544;BME280;1786;52.870;9.578;2023-05-12T08:16:29;100994.81;;;35.57;30.67
3544;BME280;1786;52.870;9.578;2023-05-12T08:18:56;100994.72;;;35.91;31.48
3544;BME280;1786;52.870;9.578;2023-05-12T08:21:24;100995.06;;;36.44;29.96
3544;BME280;1786;52.870;9.578;2023-05-12T08:23:51;101000.91;;;37.07;30.06
3544;BME280;1786;52.870;9.578;2023-05-12T08:26:17;100996.22;;;36.48;30.63
3544;BME280;1786;52.870;9.578;2023-05-12T08:28:44;100999.91;;;37.18;29.36
3544;BME280;1786;52.870;9.578;2023-05-12T08:31:11;100999.63;;;37.62;29.03
3544;BME280;1786;52.870;9.578;2023-05-12T08:33:38;101000.72;;;37.56;28.68
3544;BME280;1786;52.870;9.578;2023-05-12T08:36:05;101002.53;;;36.70;28.96
3544;BME280;1786;52.870;9.578;2023-05-12T08:38:31;101003.66;;;37.07;30.51
3544;BME280;1786;52.870;9.578;2023-05-12T08:41:10;101005.06;;;36.50;29.08
3544;BME280;1786;52.870;9.578;2023-05-12T08:43:42;101009.06;;;36.37;29.20
3544;BME280;1786;52.870;9.578;2023-05-12T08:46:12;100994.47;;;36.36;29.26
3544;BME280;1786;52.870;9.578;2023-05-12T08:48:40;100999.84;;;36.04;29.75
3544;BME280;1786;52.870;9.578;2023-05-12T08:51:07;101005.22;;;36.65;29.93
3544;BME280;1786;52.870;9.578;2023-05-12T08:53:38;101003.38;;;36.49;30.51
3544;BME280;1786;52.870;9.578;2023-05-12T08:56:08;100996.09;;;36.59;29.88
3544;BME280;1786;52.870;9.578;2023-05-12T08:58:38;101004.44;;;37.39;29.80
3544;BME280;1786;52.870;9.578;2023-05-12T09:01:10;101007.34;;;37.60;28.80
3544;BME280;1786;52.870;9.578;2023-05-12T09:03:37;100992.75;;;37.64;30.02
3544;BME280;1786;52.870;9.578;2023-05-12T09:06:05;101002.91;;;36.84;29.22
3544;BME280;1786;52.870;9.578;2023-05-12T09:08:32;101003.97;;;37.47;29.70
3544;BME280;1786;52.870;9.578;2023-05-12T09:11:00;101001.41;;;37.03;29.04
3544;BME280;1786;52.870;9.578;2023-05-12T09:13:52;100998.94;;;37.87;28.63
3544;BME280;1786;52.870;9.578;2023-05-12T09:16:24;101002.94;;;37.59;29.05
3544;BME280;1786;52.870;9.578;2023-05-12T09:18:53;101003.88;;;38.63;27.83
3544;BME280;1786;52.870;9.578;2023-05-12T09:21:21;101010.00;;;39.01;27.52
3544;BME280;1786;52.870;9.578;2023-05-12T09:23:55;101024.34;;;39.24;27.52
3544;BME280;1786;52.870;9.578;2023-05-12T09:26:23;101016.63;;;38.95;27.42
3544;BME280;1786;52.870;9.578;2023-05-12T09:28:52;101012.38;;;38.31;27.59
3544;BME280;1786;52.870;9.578;2023-05-12T09:31:21;101022.97;;;39.16;27.45
3544;BME280;1786;52.870;9.578;2023-05-12T09:33:49;101028.22;;;39.17;26.67
3544;BME280;1786;52.870;9.578;2023-05-12T09:36:17;101023.38;;;38.16;27.65
3544;BME280;1786;52.870;9.578;2023-05-12T09:38:45;101015.19;;;38.46;27.66
3544;BME280;1786;52.870;9.578;2023-05-12T09:41:11;101019.91;;;38.66;27.38
3544;BME280;1786;52.870;9.578;2023-05-12T09:43:44;101017.19;;;39.02;27.09
3544;BME280;1786;52.870;9.578;2023-05-12T09:46:11;101017.16;;;38.61;26.94
3544;BME280;1786;52.870;9.578;2023-05-12T09:48:40;101022.47;;;38.05;26.41
3544;BME280;1786;52.870;9.578;2023-05-12T09:51:08;101016.19;;;38.20;27.53
3544;BME280;1786;52.870;9.578;2023-05-12T09:53:40;101024.28;;;39.70;26.83
3544;BME280;1786;52.870;9.578;2023-05-12T09:56:10;101017.97;;;38.72;26.17
3544;BME280;1786;52.870;9.578;2023-05-12T09:58:42;101014.66;;;38.65;25.45
3544;BME280;1786;52.870;9.578;2023-05-12T10:01:14;101011.09;;;38.90;25.53
3544;BME280;1786;52.870;9.578;2023-05-12T10:03:52;101007.59;;;38.06;26.11
3544;BME280;1786;52.870;9.578;2023-05-12T10:06:27;101016.59;;;38.59;26.07
3544;BME280;1786;52.870;9.578;2023-05-12T10:09:13;101017.66;;;38.58;26.69
3544;BME280;1786;52.870;9.578;2023-05-12T10:11:42;101016.38;;;36.80;27.70
3544;BME280;1786;52.870;9.578;2023-05-12T10:14:09;101009.22;;;37.12;27.28
3544;BME280;1786;52.870;9.578;2023-05-12T10:16:37;101014.34;;;37.30;26.53
3544;BME280;1786;52.870;9.578;2023-05-12T10:19:04;101008.38;;;37.49;25.58
3544;BME280;1786;52.870;9.578;2023-05-12T10:21:31;101013.03;;;37.43;26.94
3544;BME280;1786;52.870;9.578;2023-05-12T10:23:59;101015.94;;;36.94;26.00
3544;BME280;1786;52.870;9.578;2023-05-12T10:26:27;101015.97;;;36.39;26.22
3544;BME280;1786;52.870;9.578;2023-05-12T10:28:54;101012.28;;;36.83;26.06
3544;BME280;1786;52.870;9.578;2023-05-12T10:31:21;101009.63;;;37.31;25.83
3544;BME280;1786;52.870;9.578;2023-05-12T10:33:56;101008.69;;;36.06;25.00
3544;BME280;1786;52.870;9.578;2023-05-12T10:36:23;101009.94;;;36.43;24.59
3544;BME280;1786;52.870;9.578;2023-05-12T10:38:50;101001.00;;;36.85;25.21
3544;BME280;1786;52.870;9.578;2023-05-12T10:41:28;101008.50;;;36.94;25.47
3544;BME280;1786;52.870;9.578;2023-05-12T10:43:55;101007.44;;;36.41;26.02
3544;BME280;1786;52.870;9.578;2023-05-12T10:46:22;101003.56;;;36.64;26.09
3544;BME280;1786;52.870;9.578;2023-05-12T10:49:08;101000.69;;;36.27;25.11
3544;BME280;1786;52.870;9.578;2023-05-12T10:54:10;101013.22;;;36.99;25.88
3544;BME280;1786;52.870;9.578;2023-05-12T11:07:09;101010.22;;;36.46;25.32
3544;BME280;1786;52.870;9.578;2023-05-12T11:09:41;101001.94;;;36.68;24.64
3544;BME280;1786;52.870;9.578;2023-05-12T11:12:24;101007.66;;;36.61;23.73
3544;BME280;1786;52.870;9.578;2023-05-12T11:14:54;101013.03;;;37.91;24.01
3544;BME280;1786;52.870;9.578;2023-05-12T11:17:20;101002.28;;;37.94;24.41
3544;BME280;1786;52.870;9.578;2023-05-12T11:19:48;101010.56;;;39.34;22.64
3544;BME280;1786;52.870;9.578;2023-05-12T11:22:18;101006.09;;;38.82;21.10
3544;BME280;1786;52.870;9.578;2023-05-12T11:24:46;101000.56;;;38.61;21.95
3544;BME280;1786;52.870;9.578;2023-05-12T11:27:15;101002.94;;;38.17;22.62
3544;BME280;1786;52.870;9.578;2023-05-12T11:29:43;101000.00;;;37.33;23.21
3544;BME280;1786;52.870;9.578;2023-05-12T11:32:14;100999.28;;;36.78;23.69
3544;BME280;1786;52.870;9.578;2023-05-12T11:34:41;100997.31;;;36.74;23.65
3544;BME280;1786;52.870;9.578;2023-05-12T11:37:08;101001.16;;;37.37;24.75
3544;BME280;1786;52.870;9.578;2023-05-12T11:39:35;101002.97;;;37.27;24.84
3544;BME280;1786;52.870;9.578;2023-05-12T11:42:03;101010.47;;;37.31;23.79
3544;BME280;1786;52.870;9.578;2023-05-12T11:44:48;100998.84;;;37.24;25.20
3544;BME280;1786;52.870;9.578;2023-05-12T11:47:18;100998.53;;;37.58;24.18
3544;BME280;1786;52.870;9.578;2023-05-12T11:49:49;101011.44;;;38.00;24.67
3544;BME280;1786;52.870;9.578;2023-05-12T11:52:18;101006.53;;;37.59;23.24
3544;BME280;1786;52.870;9.578;2023-05-12T11:54:55;101015.38;;;37.24;23.00
3544;BME280;1786;52.870;9.578;2023-05-12T11:57:33;101001.28;;;37.53;22.80
3544;BME280;1786;52.870;9.578;2023-05-12T12:00:04;101018.81;;;38.83;22.61
3544;BME280;1786;52.870;9.578;2023-05-12T12:02:33;101015.47;;;39.52;21.06
3544;BME280;1786;52.870;9.578;2023-05-12T12:05:02;101023.78;;;38.81;22.23
3544;BME280;1786;52.870;9.578;2023-05-12T12:07:34;101019.47;;;38.12;22.02
3544;BME280;1786;52.870;9.578;2023-05-12T12:10:30;101013.00;;;36.73;22.58
3544;BME280;1786;52.870;9.578;2023-05-12T12:12:59;101009.19;;;36.74;23.28
3544;BME280;1786;52.870;9.578;2023-05-12T12:15:26;101008.63;;;37.95;22.68
3544;BME280;1786;52.870;9.578;2023-05-12T12:17:53;101016.50;;;37.28;22.75
3544;BME280;1786;52.870;9.578;2023-05-12T12:20:20;101016.56;;;37.38;22.80
3544;BME280;1786;52.870;9.578;2023-05-12T12:22:47;101004.44;;;37.82;22.55
3544;BME280;1786;52.870;9.578;2023-05-12T12:25:13;101009.69;;;37.83;22.66
3544;BME280;1786;52.870;9.578;2023-05-12T12:27:40;101014.91;;;38.63;22.84
3544;BME280;1786;52.870;9.578;2023-05-12T12:30:07;101005.28;;;38.81;22.33
3544;BME280;1786;52.870;9.578;2023-05-12T12:32:35;101013.50;;;37.77;22.85
3544;BME280;1786;52.870;9.578;2023-05-12T12:35:02;101012.41;;;36.98;22.80
3544;BME280;1786;52.870;9.578;2023-05-12T12:37:31;100996.44;;;37.00;22.98
3544;BME280;1786;52.870;9.578;2023-05-12T12:39:58;100998.22;;;36.79;23.61
3544;BME280;1786;52.870;9.578;2023-05-12T12:42:25;100998.06;;;37.34;23.11
3544;BME280;1786;52.870;9.578;2023-05-12T12:44:52;101011.09;;;38.90;21.77
3544;BME280;1786;52.870;9.578;2023-05-12T12:47:19;101004.28;;;39.93;22.00
3544;BME280;1786;52.870;9.578;2023-05-12T12:49:45;101003.66;;;40.56;20.65
3544;BME280;1786;52.870;9.578;2023-05-12T12:52:12;100998.66;;;40.93;21.21
3544;BME280;1786;52.870;9.578;2023-05-12T12:54:38;101009.13;;;42.26;19.76
3544;BME280;1786;52.870;9.578;2023-05-12T12:57:05;101002.81;;;41.78;19.76
3544;BME280;1786;52.870;9.578;2023-05-12T12:59:32;100994.56;;;42.53;20.55
3544;BME280;1786;52.870;9.578;2023-05-12T13:01:59;100999.50;;;42.00;19.56
3544;BME280;1786;52.870;9.578;2023-05-12T13:04:26;100999.22;;;42.77;19.82
3544;BME280;1786;52.870;9.578;2023-05-12T13:06:53;101009.78;;;41.99;19.92
3544;BME280;1786;52.870;9.578;2023-05-12T13:09:19;101014.00;;;39.75;19.30
3544;BME280;1786;52.870;9.578;2023-05-12T13:11:46;101002.78;;;39.21;21.32
3544;BME280;1786;52.870;9.578;2023-05-12T13:14:13;101002.00;;;40.06;19.81
3544;BME280;1786;52.870;9.578;2023-05-12T13:16:39;101000.56;;;38.66;21.01
3544;BME280;1786;52.870;9.578;2023-05-12T13:19:06;100990.53;;;38.24;22.01
3544;BME280;1786;52.870;9.578;2023-05-12T13:21:33;100977.78;;;38.03;21.14
3544;BME280;1786;52.870;9.578;2023-05-12T13:24:00;100984.47;;;38.32;21.59
3544;BME280;1786;52.870;9.578;2023-05-12T13:26:27;100989.41;;;38.25;21.25
3544;BME280;1786;52.870;9.578;2023-05-12T13:28:53;100993.38;;;38.81;20.69